Time;durP1;ratioP1;P1;durP2;ratioP2;P2;SDS_P1;SDS_P2;PMS_P1;PMS_P2;Temp;Humidity;BMP_temperature;BMP_pressure;BME280_temperature;BME280_humidity;BME280_pressure;Samples;Min_cycle;Max_cycle;Signal;HPM_P1;HPM_P2
2023/03/02 00:01:51;;;;;;;;;56.50;42.25;;;;;6.09;89.72;101815.72;5106429;27;45254;-73
2023/03/02 00:04:23;;;;;;;;;52.00;41.50;;;;;6.09;89.54;101814.88;5105223;27;45195;-73
2023/03/02 00:06:50;;;;;;;;;50.00;41.25;;;;;6.12;89.92;101822.78;5106335;27;45678;-73
2023/03/02 00:09:16;;;;;;;;;62.25;46.25;;;;;6.03;90.31;101813.41;5104939;27;45518;-73
2023/03/02 00:11:42;;;;;;;;;65.75;50.25;;;;;6.02;91.16;101818.91;5105116;27;45199;-74
2023/03/02 00:14:07;;;;;;;;;53.00;44.75;;;;;5.96;90.30;101817.44;5106437;27;45504;-73
2023/03/02 00:16:33;;;;;;;;;65.00;45.00;;;;;5.97;91.31;101816.50;5106222;27;46342;-74
2023/03/02 00:18:58;;;;;;;;;56.25;46.25;;;;;5.91;91.83;101818.69;5090322;27;45290;-73
2023/03/02 00:21:24;;;;;;;;;53.50;42.75;;;;;5.88;92.36;101821.56;5094933;27;45499;-73
2023/03/02 00:23:50;;;;;;;;;57.50;44.50;;;;;5.84;92.84;101818.16;5101648;27;45278;-73
2023/03/02 00:26:16;;;;;;;;;49.50;43.00;;;;;5.84;92.69;101823.56;5085494;27;45449;-73
2023/03/02 00:28:42;;;;;;;;;40.50;29.25;;;;;5.86;93.04;101821.63;5101351;27;45327;-74
2023/03/02 00:31:07;;;;;;;;;53.75;43.75;;;;;5.80;93.46;101821.97;5086147;27;45890;-74
2023/03/02 00:33:33;;;;;;;;;49.50;37.25;;;;;5.78;94.65;101818.50;5085824;28;45275;-74
2023/03/02 00:35:59;;;;;;;;;57.50;44.50;;;;;5.72;94.58;101818.88;5087320;27;45423;-74
2023/03/02 00:38:24;;;;;;;;;62.00;48.00;;;;;5.71;95.04;101822.53;5087394;27;45369;-74
2023/03/02 00:40:49;;;;;;;;;48.25;39.75;;;;;5.71;95.27;101822.53;5084035;27;46154;-74
2023/03/02 00:43:15;;;;;;;;;58.75;44.00;;;;;5.55;95.64;101801.03;5085711;27;45410;-74
2023/03/02 00:45:41;;;;;;;;;56.25;45.25;;;;;5.64;96.90;101824.72;5094435;27;47930;-73
2023/03/02 00:48:06;;;;;;;;;66.00;48.25;;;;;5.57;96.42;101809.88;5087486;27;45255;-73
2023/03/02 00:50:32;;;;;;;;;66.50;48.75;;;;;5.60;96.67;101817.78;5095106;27;45195;-73
2023/03/02 00:52:57;;;;;;;;;52.00;42.25;;;;;5.52;97.32;101803.88;5106223;27;45213;-73
2023/03/02 00:55:22;;;;;;;;;51.00;42.75;;;;;5.57;97.77;101820.66;5104464;27;57836;-73
2023/03/02 00:57:53;;;;;;;;;61.00;47.50;;;;;5.52;98.09;101821.88;5105602;27;45311;-74
2023/03/02 01:00:21;;;;;;;;;61.00;46.25;;;;;5.49;99.01;101822.94;5103970;27;45309;-73
2023/03/02 01:02:46;;;;;;;;;61.00;46.25;;;;;5.52;98.75;101827.28;5105802;27;45493;-73
2023/03/02 01:05:12;;;;;;;;;53.00;43.00;;;;;5.45;99.71;101822.25;5103993;27;47149;-73
2023/03/02 01:07:37;;;;;;;;;55.25;43.00;;;;;5.42;99.78;101814.34;5103947;27;45286;-73
2023/03/02 01:10:03;;;;;;;;;49.50;41.75;;;;;5.36;99.66;101817.38;5093525;27;47975;-73
2023/03/02 01:12:28;;;;;;;;;45.75;40.00;;;;;5.35;100.00;101815.66;5102233;27;45240;-73
2023/03/02 01:14:54;;;;;;;;;58.00;45.00;;;;;5.43;100.00;101828.69;5105110;27;45492;-73
2023/03/02 01:17:21;;;;;;;;;56.75;43.00;;;;;5.40;100.00;101826.19;5086623;27;47633;-73
2023/03/02 01:19:47;;;;;;;;;59.50;44.50;;;;;5.42;100.00;101827.81;5101084;27;45347;-73
2023/03/02 01:22:13;;;;;;;;;59.75;49.75;;;;;5.26;100.00;101804.56;5085073;27;45752;-74
2023/03/02 01:24:38;;;;;;;;;59.75;48.75;;;;;5.41;100.00;101820.69;5084786;27;45552;-73
2023/03/02 01:27:04;;;;;;;;;73.00;58.00;;;;;5.39;100.00;101817.22;5084034;27;45292;-73
2023/03/02 01:29:29;;;;;;;;;90.50;62.00;;;;;5.36;100.00;101813.81;5084638;27;45319;-73
2023/03/02 01:31:54;;;;;;;;;75.25;59.25;;;;;5.31;100.00;101810.53;5100725;27;45610;-74
2023/03/02 01:34:20;;;;;;;;;76.75;58.50;;;;;5.33;100.00;101824.81;5100231;27;48242;-73
2023/03/02 01:36:45;;;;;;;;;76.75;57.25;;;;;5.34;100.00;101813.91;5089748;27;45297;-73
2023/03/02 01:39:15;;;;;;;;;73.00;56.50;;;;;5.20;100.00;101805.75;5084663;27;45569;-73
2023/03/02 01:41:45;;;;;;;;;75.25;55.25;;;;;5.31;100.00;101819.50;5084628;27;45419;-73
2023/03/02 01:44:40;;;;;;;;;67.00;52.75;;;;;5.21;100.00;101812.88;5082796;27;45342;-73
2023/03/02 01:47:15;;;;;;;;;65.50;47.50;;;;;5.19;100.00;101805.88;5108753;27;45715;-73
2023/03/02 01:49:48;;;;;;;;;63.25;51.25;;;;;5.08;100.00;101806.47;5102952;27;45531;-73
2023/03/02 01:52:15;;;;;;;;;55.75;46.50;;;;;5.05;100.00;101785.09;5093174;27;45616;-73
2023/03/02 01:54:42;;;;;;;;;63.25;51.75;;;;;5.11;100.00;101803.63;5082834;27;48570;-74
2023/03/02 01:57:09;;;;;;;;;58.00;44.25;;;;;4.97;100.00;101780.13;5099894;27;45336;-73
2023/03/02 01:59:39;;;;;;;;;62.75;48.00;;;;;5.18;100.00;101807.69;5081682;28;45219;-73
2023/03/02 02:02:09;;;;;;;;;60.75;47.50;;;;;5.23;100.00;101805.59;5084465;27;45524;-74
2023/03/02 02:04:38;;;;;;;;;60.75;51.00;;;;;5.17;100.00;101800.56;5083773;27;46520;-73
2023/03/02 02:07:07;;;;;;;;;53.25;44.25;;;;;5.18;100.00;101798.75;5095241;27;46149;-74
2023/03/02 02:09:40;;;;;;;;;62.00;43.50;;;;;5.15;100.00;101780.91;5099600;27;45301;-73
2023/03/02 02:12:10;;;;;;;;;52.25;44.25;;;;;5.19;100.00;101793.25;5084177;27;45242;-73
2023/03/02 02:14:35;;;;;;;;;63.25;50.50;;;;;5.04;100.00;101784.22;5089717;27;47035;-73
2023/03/02 02:17:01;;;;;;;;;63.50;46.50;;;;;5.02;100.00;101790.66;5102316;27;45403;-73
2023/03/02 02:19:50;;;;;;;;;65.50;49.00;;;;;4.96;100.00;101764.09;5084360;27;45470;-73
2023/03/02 02:22:40;;;;;;;;;52.50;45.50;;;;;4.99;100.00;101783.63;5084343;27;45464;-74
2023/03/02 02:25:17;;;;;;;;;70.50;48.75;;;;;5.03;100.00;101792.41;5095421;27;48562;-74
2023/03/02 02:27:42;;;;;;;;;62.75;47.50;;;;;5.08;100.00;101780.41;5083712;27;45380;-73
2023/03/02 02:30:13;;;;;;;;;64.75;52.50;;;;;5.06;100.00;101787.69;5099009;27;45320;-74
2023/03/02 02:32:41;;;;;;;;;47.75;40.75;;;;;5.09;100.00;101794.75;5083494;27;45487;-74
2023/03/02 02:35:18;;;;;;;;;50.75;39.50;;;;;5.05;100.00;101785.94;5083322;27;46131;-73
2023/03/02 02:37:49;;;;;;;;;72.75;52.50;;;;;4.97;100.00;101779.25;5089209;27;45301;-74
2023/03/02 02:40:22;;;;;;;;;61.50;51.00;;;;;5.06;100.00;101774.22;5083450;27;45164;-74
2023/03/02 02:42:50;;;;;;;;;55.75;44.75;;;;;5.04;100.00;101775.28;5099711;27;45558;-73
2023/03/02 02:45:26;;;;;;;;;58.25;45.75;;;;;5.04;100.00;101786.06;5082890;27;45392;-74
2023/03/02 02:47:54;;;;;;;;;59.00;47.25;;;;;5.07;100.00;101783.19;5083219;27;45368;-74
2023/03/02 02:50:37;;;;;;;;;58.00;45.50;;;;;5.07;100.00;101772.41;5090146;27;45271;-73
2023/03/02 02:53:11;;;;;;;;;45.00;39.75;;;;;5.10;100.00;101761.47;5102828;27;45437;-73
2023/03/02 02:55:37;;;;;;;;;68.50;50.75;;;;;5.08;100.00;101760.69;5090570;27;48044;-74
2023/03/02 02:58:16;;;;;;;;;62.00;47.00;;;;;5.03;100.00;101762.78;5100567;27;45300;-74
2023/03/02 03:00:41;;;;;;;;;61.50;47.50;;;;;5.05;100.00;101768.91;5103204;27;45351;-74
2023/03/02 03:03:28;;;;;;;;;63.75;51.25;;;;;5.08;100.00;101768.75;5102631;27;45191;-74
2023/03/02 03:05:54;;;;;;;;;51.25;44.00;;;;;4.97;100.00;101750.50;5103448;27;45388;-73
2023/03/02 03:08:44;;;;;;;;;65.75;51.50;;;;;4.95;100.00;101767.72;5103686;27;45313;-73
2023/03/02 03:11:23;;;;;;;;;59.50;44.25;;;;;5.00;100.00;101771.88;5103382;27;45491;-74
2023/03/02 03:13:59;;;;;;;;;62.75;47.00;;;;;4.99;100.00;101774.66;5107331;27;45353;-74
2023/03/02 03:16:28;;;;;;;;;55.00;46.00;;;;;5.00;100.00;101774.59;5096259;27;47874;-73
2023/03/02 03:18:56;;;;;;;;;56.25;46.75;;;;;5.00;100.00;101769.19;5100243;27;45372;-73
2023/03/02 03:21:21;;;;;;;;;60.00;46.25;;;;;5.01;100.00;101764.69;5102432;27;45348;-73
2023/03/02 03:23:48;;;;;;;;;65.25;48.50;;;;;5.00;100.00;101771.03;5102550;27;45353;-74
2023/03/02 03:26:14;;;;;;;;;59.00;43.50;;;;;4.94;100.00;101764.16;5094827;27;47248;-73
2023/03/02 03:28:39;;;;;;;;;65.50;51.00;;;;;4.98;100.00;101772.91;5101683;27;46283;-73
2023/03/02 03:31:04;;;;;;;;;60.50;48.00;;;;;4.98;100.00;101768.41;5086616;27;45273;-74
2023/03/02 03:33:30;;;;;;;;;58.50;47.50;;;;;4.96;100.00;101780.25;5086709;27;45417;-73
2023/03/02 03:35:55;;;;;;;;;64.50;46.50;;;;;4.96;100.00;101764.09;5087893;27;46359;-73
2023/03/02 03:38:21;;;;;;;;;71.00;51.25;;;;;4.90;100.00;101761.72;5090035;27;45416;-74
2023/03/02 03:40:46;;;;;;;;;57.50;48.00;;;;;4.93;100.00;101772.31;5086622;27;45335;-74
2023/03/02 03:43:13;;;;;;;;;64.25;48.00;;;;;4.89;100.00;101757.31;5102398;27;45323;-74
2023/03/02 03:45:39;;;;;;;;;59.25;44.75;;;;;4.93;100.00;101759.72;5085969;27;45549;-74
2023/03/02 03:48:04;;;;;;;;;66.50;51.50;;;;;4.93;100.00;101759.72;5098243;27;45702;-74
2023/03/02 03:50:30;;;;;;;;;56.00;45.25;;;;;4.94;100.00;101772.25;5096100;27;45431;-74
2023/03/02 03:52:55;;;;;;;;;61.00;45.50;;;;;4.97;100.00;101765.78;5105709;27;45247;-74
2023/03/02 03:55:21;;;;;;;;;49.50;43.75;;;;;4.97;100.00;101763.97;5106700;27;45705;-74
2023/03/02 03:57:46;;;;;;;;;57.75;48.00;;;;;4.92;100.00;101762.50;5106289;27;45181;-74
2023/03/02 04:00:15;;;;;;;;;62.25;50.50;;;;;4.94;100.00;101776.75;5106366;27;45147;-74
2023/03/02 04:02:41;;;;;;;;;61.25;47.25;;;;;4.83;100.00;101765.72;5091792;27;45424;-73
2023/03/02 04:05:07;;;;;;;;;67.00;50.50;;;;;4.80;100.00;101780.25;5106407;27;45507;-74
2023/03/02 04:07:33;;;;;;;;;67.75;52.00;;;;;4.78;100.00;101768.69;5106039;27;45742;-74
2023/03/02 04:10:05;;;;;;;;;66.50;52.00;;;;;4.65;100.00;101773.91;5106597;27;45336;-74
2023/03/02 04:12:32;;;;;;;;;65.75;50.75;;;;;4.68;100.00;101776.41;5105260;27;45405;-74
2023/03/02 04:14:57;;;;;;;;;67.25;54.00;;;;;4.75;100.00;101781.47;5093415;27;48246;-74
2023/03/02 04:17:23;;;;;;;;;63.75;51.25;;;;;4.76;100.00;101778.66;5115946;27;45358;-74
2023/03/02 04:19:48;;;;;;;;;62.75;49.00;;;;;4.77;100.00;101784.91;5096984;27;45339;-74
2023/03/02 04:22:15;;;;;;;;;62.75;50.50;;;;;4.80;100.00;101777.53;5087826;27;45361;-74
2023/03/02 04:24:40;;;;;;;;;62.25;50.00;;;;;4.81;100.00;101786.50;5095185;27;48040;-74
2023/03/02 04:27:06;;;;;;;;;64.00;49.25;;;;;4.74;100.00;101777.03;5087681;27;45272;-74
2023/03/02 04:29:31;;;;;;;;;59.00;47.25;;;;;4.76;100.00;101780.47;5085468;27;45410;-74
2023/03/02 04:31:57;;;;;;;;;74.50;55.00;;;;;4.76;100.00;101780.47;5085732;27;45399;-74
2023/03/02 04:34:24;;;;;;;;;65.25;49.50;;;;;4.77;100.00;101785.78;5085184;27;45646;-74
2023/03/02 04:36:50;;;;;;;;;71.00;53.75;;;;;4.74;100.00;101785.09;5090670;27;45348;-75
2023/03/02 04:39:16;;;;;;;;;67.25;50.00;;;;;4.77;100.00;101790.28;5085547;27;45409;-74
2023/03/02 04:41:42;;;;;;;;;66.25;51.50;;;;;4.77;100.00;101784.91;5085712;27;45272;-74
2023/03/02 04:44:08;;;;;;;;;71.00;53.50;;;;;4.68;100.00;101779.09;5084879;27;45400;-74
2023/03/02 04:46:33;;;;;;;;;68.75;51.75;;;;;4.73;100.00;101788.75;5085118;27;45321;-74
2023/03/02 04:48:59;;;;;;;;;61.00;45.75;;;;;4.72;100.00;101787.00;5085246;27;45403;-74
2023/03/02 04:51:29;;;;;;;;;67.00;53.75;;;;;4.73;100.00;101783.34;5102658;27;45492;-74
2023/03/02 04:53:58;;;;;;;;;65.75;53.50;;;;;4.78;100.00;101792.03;5105619;27;45529;-74
2023/03/02 04:56:23;;;;;;;;;66.25;53.50;;;;;4.75;100.00;101787.69;5105300;27;45388;-74
2023/03/02 04:58:49;;;;;;;;;61.00;49.00;;;;;4.73;100.00;101786.06;5105172;27;45317;-74
2023/03/02 05:01:15;;;;;;;;;65.75;54.50;;;;;4.73;100.00;101794.13;5104137;27;45504;-74
2023/03/02 05:03:41;;;;;;;;;62.75;48.75;;;;;4.68;100.00;101787.16;5105026;27;46340;-74
2023/03/02 05:06:07;;;;;;;;;75.00;58.00;;;;;4.60;100.00;101788.56;5104988;27;45455;-73
2023/03/02 05:08:33;;;;;;;;;65.50;52.25;;;;;4.58;100.00;101790.47;5105487;27;45183;-74
2023/03/02 05:10:58;;;;;;;;;73.25;57.75;;;;;4.60;100.00;101794.78;5105248;27;45163;-74
2023/03/02 05:13:25;;;;;;;;;67.50;53.25;;;;;4.58;100.00;101785.09;5104858;27;45217;-74
2023/03/02 05:15:51;;;;;;;;;61.00;46.00;;;;;4.59;100.00;101782.31;5104882;27;45258;-74
2023/03/02 05:18:17;;;;;;;;;64.00;52.00;;;;;4.53;100.00;101771.88;5103284;27;45344;-73
2023/03/02 05:20:43;;;;;;;;;71.75;59.00;;;;;4.52;100.00;101775.53;5086242;27;45264;-74
2023/03/02 05:23:10;;;;;;;;;70.75;53.50;;;;;4.59;100.00;101782.31;5083964;27;45437;-73
2023/03/02 05:25:37;;;;;;;;;70.75;56.00;;;;;4.63;100.00;101778.47;5083638;27;45607;-74
2023/03/02 05:28:03;;;;;;;;;81.50;60.50;;;;;4.64;100.00;101785.59;5099955;27;45285;-74
2023/03/02 05:30:31;;;;;;;;;74.50;56.75;;;;;4.59;100.00;101782.31;5083907;27;45240;-73
2023/03/02 05:32:57;;;;;;;;;66.25;51.25;;;;;4.60;100.00;101778.63;5083928;28;46635;-73
2023/03/02 05:35:23;;;;;;;;;68.00;55.00;;;;;4.63;100.00;101785.69;5081045;28;45407;-76
2023/03/02 05:37:48;;;;;;;;;64.75;51.75;;;;;4.60;100.00;101781.34;5089134;27;45360;-74
2023/03/02 05:40:17;;;;;;;;;65.50;49.50;;;;;4.62;100.00;101782.13;5099513;27;45322;-73
2023/03/02 05:42:43;;;;;;;;;63.25;51.75;;;;;4.57;100.00;101778.81;5083690;27;46320;-73
2023/03/02 05:45:17;;;;;;;;;71.00;54.50;;;;;4.66;100.00;101782.84;5083245;27;45273;-73
2023/03/02 05:47:42;;;;;;;;;70.25;55.25;;;;;4.65;100.00;101787.34;5084001;27;45732;-74
2023/03/02 05:50:08;;;;;;;;;70.50;53.75;;;;;4.57;100.00;101778.81;5100144;27;45629;-74
2023/03/02 05:52:33;;;;;;;;;62.00;52.00;;;;;4.54;100.00;101773.59;5082003;28;46757;-72
2023/03/02 05:54:59;;;;;;;;;73.25;54.25;;;;;4.59;100.00;101793.09;5083612;28;47796;-74
2023/03/02 05:57:24;;;;;;;;;70.25;51.50;;;;;4.55;100.00;101786.09;5095591;27;45270;-74
2023/03/02 05:59:49;;;;;;;;;66.75;51.25;;;;;4.53;100.00;101785.31;5103297;27;45247;-75
2023/03/02 06:02:15;;;;;;;;;69.75;53.50;;;;;4.57;100.00;101803.06;5090906;27;45766;-73
2023/03/02 06:04:41;;;;;;;;;62.00;48.50;;;;;4.55;100.00;101799.56;5083626;27;45281;-74
2023/03/02 06:07:09;;;;;;;;;74.25;54.00;;;;;4.56;100.00;101798.63;5081679;28;45392;-74
2023/03/02 06:09:35;;;;;;;;;69.75;54.75;;;;;4.55;100.00;101804.06;5083670;27;45317;-72
2023/03/02 06:12:01;;;;;;;;;61.25;51.75;;;;;4.51;100.00;101803.41;5098496;27;47301;-74
2023/03/02 06:14:26;;;;;;;;;66.50;54.75;;;;;4.55;100.00;101818.41;5098335;27;45367;-73
2023/03/02 06:16:51;;;;;;;;;70.25;51.50;;;;;4.51;100.00;101815.97;5083114;27;45238;-73
2023/03/02 06:19:17;;;;;;;;;64.50;52.00;;;;;4.34;100.00;101811.50;5099237;27;45309;-73
2023/03/02 06:21:42;;;;;;;;;64.50;50.25;;;;;4.39;100.00;101812.13;5083518;27;45492;-73
2023/03/02 06:24:07;;;;;;;;;68.00;53.00;;;;;4.46;100.00;101818.91;5082967;28;45325;-73
2023/03/02 06:26:33;;;;;;;;;65.25;53.00;;;;;4.45;100.00;101825.25;5083204;27;45420;-74
2023/03/02 06:28:58;;;;;;;;;65.25;51.25;;;;;4.42;100.00;101817.34;5080319;27;45194;-73
2023/03/02 06:31:23;;;;;;;;;76.25;56.25;;;;;4.25;100.00;101820.06;5098300;27;47799;-73
2023/03/02 06:33:49;;;;;;;;;73.25;59.00;;;;;4.33;100.00;101823.22;5083144;27;45534;-74
2023/03/02 06:36:15;;;;;;;;;65.50;52.00;;;;;4.37;100.00;101819.41;5086590;27;45304;-73
2023/03/02 06:38:41;;;;;;;;;66.00;56.00;;;;;4.40;100.00;101826.44;5082126;27;45390;-72
2023/03/02 06:41:06;;;;;;;;;69.00;53.75;;;;;4.45;100.00;101822.56;5094366;27;46054;-75
2023/03/02 06:43:31;;;;;;;;;75.25;58.00;;;;;4.46;100.00;101834.16;5081880;27;46519;-73
2023/03/02 06:45:59;;;;;;;;;68.00;54.25;;;;;4.49;100.00;101834.88;5094104;27;45262;-72
2023/03/02 06:48:24;;;;;;;;;69.75;55.75;;;;;4.52;100.00;101828.47;5101485;27;45362;-73
2023/03/02 06:50:50;;;;;;;;;70.25;56.75;;;;;4.49;100.00;101829.50;5102613;27;45526;-73
2023/03/02 06:53:17;;;;;;;;;68.00;55.25;;;;;4.54;100.00;101824.72;5100844;27;46001;-73
2023/03/02 06:55:42;;;;;;;;;69.25;56.00;;;;;4.57;100.00;101838.03;5102411;27;45185;-73
2023/03/02 06:58:11;;;;;;;;;64.50;51.75;;;;;4.67;100.00;101839.28;5102399;27;45279;-74
2023/03/02 07:00:37;;;;;;;;;70.75;53.00;;;;;4.72;100.00;101835.47;5101680;27;45311;-73
2023/03/02 07:03:03;;;;;;;;;72.25;55.00;;;;;4.77;100.00;101834.25;5099702;27;45340;-73
2023/03/02 07:05:31;;;;;;;;;65.00;51.00;;;;;4.82;100.00;101839.41;5101042;27;45341;-73
2023/03/02 07:07:59;;;;;;;;;69.50;54.25;;;;;4.89;100.00;101846.19;5102291;27;45244;-74
2023/03/02 07:10:25;;;;;;;;;65.00;53.50;;;;;4.86;100.00;101831.06;5099981;27;47262;-72
2023/03/02 07:12:51;;;;;;;;;71.50;53.50;;;;;4.93;100.00;101845.03;5101299;27;45349;-72
2023/03/02 07:15:17;;;;;;;;;72.50;56.25;;;;;4.94;100.00;101838.69;5101197;27;45510;-74
2023/03/02 07:17:43;;;;;;;;;67.00;52.25;;;;;4.93;100.00;101851.28;5102459;27;45581;-74
2023/03/02 07:20:13;;;;;;;;;73.25;59.25;;;;;4.81;100.00;101833.13;5089118;27;45364;-73
2023/03/02 07:22:39;;;;;;;;;76.25;55.25;;;;;4.92;100.00;101843.28;5087903;27;45261;-72
2023/03/02 07:25:06;;;;;;;;;66.50;52.00;;;;;5.05;100.00;101836.25;5100954;27;45178;-75
2023/03/02 07:27:31;;;;;;;;;71.25;54.25;;;;;5.13;100.00;101830.44;5102060;27;45435;-73
2023/03/02 07:29:56;;;;;;;;;68.75;53.00;;;;;5.11;100.00;101844.03;5101968;27;45868;-75
2023/03/02 07:32:22;;;;;;;;;72.50;56.50;;;;;5.05;100.00;101830.88;5093181;27;45356;-73
2023/03/02 07:34:47;;;;;;;;;75.50;54.25;;;;;5.02;100.00;101833.75;5095322;27;45432;-74
2023/03/02 07:37:12;;;;;;;;;70.00;54.50;;;;;5.11;100.00;101838.63;5095147;27;45647;-74
2023/03/02 07:39:38;;;;;;;;;75.00;59.50;;;;;5.05;100.00;101833.56;5081558;27;46697;-73
2023/03/02 07:42:05;;;;;;;;;67.00;54.75;;;;;5.18;100.00;101836.47;5081158;27;45388;-72
2023/03/02 07:44:31;;;;;;;;;67.75;54.25;;;;;5.38;100.00;101834.34;5081128;27;45213;-75
2023/03/02 07:46:57;;;;;;;;;71.75;56.50;;;;;5.57;100.00;101831.44;5082493;27;45209;-74
2023/03/02 07:49:22;;;;;;;;;71.50;58.50;;;;;5.78;100.00;101837.38;5093649;27;47257;-74
2023/03/02 07:51:48;;;;;;;;;70.25;57.25;;;;;6.01;100.00;101826.13;5101848;27;45139;-73
2023/03/02 07:54:13;;;;;;;;;66.50;52.00;;;;;6.34;100.00;101838.53;5100878;27;45539;-74
2023/03/02 07:56:38;;;;;;;;;59.50;50.50;;;;;6.43;100.00;101832.56;5094384;27;45237;-74
2023/03/02 07:59:04;;;;;;;;;70.00;56.50;;;;;6.19;100.00;101830.41;5097350;27;51289;-75
2023/03/02 08:01:29;;;;;;;;;60.75;49.50;;;;;6.48;100.00;101820.50;5105959;27;45283;-73
2023/03/02 08:03:55;;;;;;;;;70.50;53.75;;;;;6.83;100.00;101829.06;5104973;27;45176;-75
2023/03/02 08:06:20;;;;;;;;;64.50;52.75;;;;;6.98;100.00;101830.78;5104499;27;45187;-73
2023/03/02 08:08:45;;;;;;;;;75.75;60.25;;;;;7.10;99.76;101828.25;5104624;27;46903;-75
2023/03/02 08:11:14;;;;;;;;;71.75;54.00;;;;;7.08;98.44;101838.31;5105558;27;45379;-73
2023/03/02 08:13:40;;;;;;;;;70.25;54.00;;;;;6.86;98.31;101842.41;5105081;27;45281;-73
2023/03/02 08:16:07;;;;;;;;;64.25;53.00;;;;;7.39;100.00;101851.53;5105379;27;45270;-73
2023/03/02 08:18:33;;;;;;;;;71.25;51.50;;;;;7.56;93.85;101842.31;5104891;27;45470;-73
2023/03/02 08:20:59;;;;;;;;;78.00;59.50;;;;;7.63;92.51;101833.69;5084203;28;45480;-75
2023/03/02 08:23:25;;;;;;;;;71.25;55.75;;;;;7.71;92.18;101839.44;5094595;27;46344;-74
2023/03/02 08:25:52;;;;;;;;;75.50;59.25;;;;;7.93;91.66;101843.41;5095991;27;45544;-74
2023/03/02 08:28:18;;;;;;;;;69.75;55.75;;;;;7.95;88.98;101830.63;5084271;27;46131;-75
2023/03/02 08:30:44;;;;;;;;;73.50;56.75;;;;;7.66;88.94;101838.03;5084626;27;45404;-73
2023/03/02 08:33:09;;;;;;;;;67.00;51.25;;;;;8.02;91.35;101818.41;5081928;27;45408;-73
2023/03/02 08:35:34;;;;;;;;;59.50;46.25;;;;;8.34;88.21;101840.56;5085209;27;45405;-73
2023/03/02 08:38:00;;;;;;;;;68.75;52.75;;;;;8.63;83.89;101841.19;5099938;27;48097;-74
2023/03/02 08:40:25;;;;;;;;;68.00;54.25;;;;;8.26;84.50;101832.94;5084062;27;45310;-72
2023/03/02 08:42:56;;;;;;;;;73.50;56.00;;;;;8.31;84.61;101830.81;5083890;27;45149;-74
2023/03/02 08:45:25;;;;;;;;;63.25;51.75;;;;;8.26;83.01;101830.22;5099886;27;45317;-74
2023/03/02 08:47:53;;;;;;;;;68.00;53.25;;;;;8.25;83.73;101814.97;5099288;27;47787;-74
2023/03/02 08:50:19;;;;;;;;;70.75;53.25;;;;;8.79;85.72;101821.03;5092004;27;45240;-74
2023/03/02 08:52:44;;;;;;;;;69.25;55.25;;;;;8.79;80.91;101823.75;5089051;27;45302;-74
2023/03/02 08:55:10;;;;;;;;;65.25;53.50;;;;;9.08;81.10;101816.19;5095463;27;45253;-74
2023/03/02 08:57:35;;;;;;;;;71.00;55.00;;;;;9.35;79.33;101807.88;5098851;27;45968;-73
2023/03/02 09:00:01;;;;;;;;;77.50;58.00;;;;;9.26;76.58;101809.44;5104221;27;45353;-73
2023/03/02 09:02:26;;;;;;;;;66.00;54.50;;;;;8.78;77.91;101807.59;5089849;27;45516;-73
2023/03/02 09:04:52;;;;;;;;;72.75;57.00;;;;;8.41;79.24;101803.94;5103656;27;45475;-73
2023/03/02 09:07:17;;;;;;;;;67.25;54.25;;;;;8.01;81.20;101811.25;5104556;27;45313;-73
2023/03/02 09:09:42;;;;;;;;;59.25;48.75;;;;;8.54;82.30;101803.00;5105280;27;45312;-73
2023/03/02 09:12:08;;;;;;;;;71.75;55.75;;;;;8.50;80.26;101803.28;5104707;27;45307;-75
2023/03/02 09:14:33;;;;;;;;;73.00;53.25;;;;;8.73;79.60;101801.66;5105189;27;45357;-74
2023/03/02 09:16:59;;;;;;;;;65.50;53.00;;;;;8.77;79.08;101797.72;5105045;27;45308;-73
2023/03/02 09:19:24;;;;;;;;;71.00;54.75;;;;;8.83;79.89;101800.00;5097917;27;45366;-74
2023/03/02 09:21:50;;;;;;;;;71.75;57.00;;;;;8.74;77.84;101800.69;5096922;27;45393;-74
2023/03/02 09:24:15;;;;;;;;;77.50;56.00;;;;;8.65;78.73;101802.19;5084912;27;45354;-74
2023/03/02 09:26:40;;;;;;;;;68.00;49.50;;;;;8.53;78.93;101786.84;5084151;27;46303;-74
2023/03/02 09:29:06;;;;;;;;;66.00;55.25;;;;;8.47;79.35;101807.09;5084074;27;45132;-74
2023/03/02 09:31:33;;;;;;;;;68.00;54.50;;;;;8.66;79.86;101803.06;5084266;27;45363;-74
2023/03/02 09:33:58;;;;;;;;;65.75;52.50;;;;;8.68;79.50;101806.53;5091431;27;45221;-74
2023/03/02 09:36:25;;;;;;;;;69.00;55.50;;;;;8.74;78.64;101806.97;5104184;27;45605;-73
2023/03/02 09:38:50;;;;;;;;;73.25;57.25;;;;;8.83;79.36;101802.72;5090892;27;45238;-73
2023/03/02 09:41:19;;;;;;;;;75.00;57.00;;;;;8.55;80.44;101790.28;5102603;27;45324;-73
2023/03/02 09:43:44;;;;;;;;;67.50;53.25;;;;;8.53;80.47;101798.53;5093554;27;45427;-75
2023/03/02 09:46:26;;;;;;;;;67.25;55.50;;;;;8.73;80.72;101802.53;5101366;27;45753;-72
2023/03/02 09:49:24;;;;;;;;;69.00;55.50;;;;;8.50;80.12;101806.00;5084651;27;45370;-75
2023/03/02 09:52:31;;;;;;;;;73.25;57.25;;;;;8.21;81.57;101789.09;5105721;27;45443;-74
2023/03/02 09:55:15;;;;;;;;;66.00;52.75;;;;;8.41;80.39;101799.41;5068394;28;45374;-74
2023/03/02 09:57:42;;;;;;;;;65.00;55.50;;;;;8.45;81.77;101805.47;5097415;27;45739;-74
2023/03/02 10:00:19;;;;;;;;;71.50;54.50;;;;;8.40;81.58;101803.06;5098816;27;45235;-74
2023/03/02 10:02:51;;;;;;;;;72.00;56.50;;;;;8.16;81.42;101804.78;5102719;27;45323;-74
2023/03/02 10:05:30;;;;;;;;;72.75;57.50;;;;;8.22;82.66;101804.34;5096128;27;45628;-74
2023/03/02 10:07:55;;;;;;;;;72.50;55.75;;;;;8.47;82.28;101798.13;5101456;27;45492;-74
2023/03/02 10:10:21;;;;;;;;;67.50;53.75;;;;;8.74;81.28;101806.09;5100989;27;45483;-74
2023/03/02 10:13:12;;;;;;;;;67.50;56.00;;;;;8.61;81.42;101816.09;5102262;27;45482;-74
2023/03/02 10:15:47;;;;;;;;;66.50;54.25;;;;;8.48;81.79;101813.38;5102188;27;45523;-74
2023/03/02 10:18:31;;;;;;;;;66.00;50.25;;;;;8.43;81.62;101818.25;5091746;27;45352;-74
2023/03/02 10:21:10;;;;;;;;;74.50;57.00;;;;;8.62;81.61;101801.56;5095347;27;45160;-74
2023/03/02 10:23:57;;;;;;;;;71.25;53.25;;;;;8.74;81.73;101803.38;5095084;27;45405;-76
2023/03/02 10:26:37;;;;;;;;;70.00;55.25;;;;;8.89;79.99;101788.72;5101844;27;45525;-73
2023/03/02 10:29:24;;;;;;;;;66.25;52.50;;;;;9.01;78.04;101795.94;5091976;27;48012;-74
2023/03/02 10:32:19;;;;;;;;;70.50;57.25;;;;;8.66;80.29;101794.94;5100341;27;45432;-75
2023/03/02 10:34:46;;;;;;;;;67.00;52.25;;;;;8.79;79.65;101793.94;5088492;27;45334;-74
2023/03/02 10:37:23;;;;;;;;;69.75;53.00;;;;;8.84;80.50;101797.16;5097435;27;45442;-74
2023/03/02 10:39:50;;;;;;;;;71.00;53.25;;;;;8.73;80.84;101779.97;5096259;27;45486;-74
2023/03/02 10:42:41;;;;;;;;;72.75;55.75;;;;;8.66;80.74;101784.09;5098608;27;45454;-74
2023/03/02 10:45:42;;;;;;;;;63.50;51.00;;;;;8.82;81.56;101782.88;5092531;27;45612;-74
2023/03/02 10:48:11;;;;;;;;;57.00;49.50;;;;;9.02;78.66;101778.69;5088227;27;45619;-74
2023/03/02 10:50:37;;;;;;;;;67.00;52.00;;;;;8.90;80.01;101785.91;5093059;27;45629;-74
2023/03/02 10:53:07;;;;;;;;;69.25;53.00;;;;;8.82;78.59;101782.03;5085463;27;45443;-75
2023/03/02 10:55:33;;;;;;;;;75.00;55.75;;;;;9.01;77.61;101774.25;5101908;27;45356;-74
2023/03/02 10:58:18;;;;;;;;;68.00;53.00;;;;;8.91;77.96;101773.22;5091128;27;45610;-74
2023/03/02 11:00:55;;;;;;;;;62.50;50.25;;;;;9.13;78.49;101764.38;5089861;27;46324;-74
2023/03/02 11:03:21;;;;;;;;;61.25;48.00;;;;;9.37;77.99;101757.94;5095974;27;45447;-74
2023/03/02 11:05:48;;;;;;;;;61.75;49.75;;;;;9.45;76.22;101760.06;5102017;27;45406;-74
2023/03/02 11:08:20;;;;;;;;;60.50;48.75;;;;;9.33;75.28;101755.59;5091836;27;45579;-74
2023/03/02 11:10:53;;;;;;;;;67.00;53.50;;;;;9.15;76.24;101749.69;5098425;27;47229;-73
2023/03/02 11:13:34;;;;;;;;;64.00;50.25;;;;;9.37;75.43;101765.22;5084596;27;45434;-74
2023/03/02 11:16:17;;;;;;;;;66.75;53.00;;;;;9.36;75.45;101767.06;5096283;27;45411;-73
2023/03/02 11:18:59;;;;;;;;;58.50;47.25;;;;;9.22;74.84;101758.22;5086260;27;45581;-75